sensor_id;sensor_type;location;lat;lon;timestamp;pressure;altitude;pressure_sealevel;temperature;humidity
4012;BME280;2020;48.682;9.024;2022-10-31T00:01:43;96904.41;;;10.85;81.47
4012;BME280;2020;48.682;9.024;2022-10-31T00:04:09;96907.13;;;10.65;80.84
4012;BME280;2020;48.682;9.024;2022-10-31T00:06:34;96908.09;;;10.64;80.73
4012;BME280;2020;48.682;9.024;2022-10-31T00:09:01;96899.41;;;10.73;80.04
4012;BME280;2020;48.682;9.024;2022-10-31T00:11:26;96908.13;;;10.82;80.43
4012;BME280;2020;48.682;9.024;2022-10-31T00:13:52;96909.91;;;10.53;80.14
4012;BME280;2020;48.682;9.024;2022-10-31T00:16:20;96903.41;;;10.67;79.42
4012;BME280;2020;48.682;9.024;2022-10-31T00:18:58;96912.91;;;10.59;79.31
4012;BME280;2020;48.682;9.024;2022-10-31T00:21:24;96915.41;;;10.50;80.05
4012;BME280;2020;48.682;9.024;2022-10-31T00:23:49;96901.47;;;10.42;80.35
4012;BME280;2020;48.682;9.024;2022-10-31T00:26:15;96906.66;;;10.42;82.58
4012;BME280;2020;48.682;9.024;2022-10-31T00:28:41;96903.94;;;10.43;81.53
4012;BME280;2020;48.682;9.024;2022-10-31T00:31:08;96908.84;;;10.46;81.93
4012;BME280;2020;48.682;9.024;2022-10-31T00:33:35;96902.69;;;10.47;81.55
4012;BME280;2020;48.682;9.024;2022-10-31T00:36:02;96908.84;;;10.46;82.03
4012;BME280;2020;48.682;9.024;2022-10-31T00:38:27;96911.28;;;10.48;82.13
4012;BME280;2020;48.682;9.024;2022-10-31T00:40:52;96899.78;;;10.50;81.54
4012;BME280;2020;48.682;9.024;2022-10-31T00:43:18;96906.97;;;10.29;82.06
4012;BME280;2020;48.682;9.024;2022-10-31T00:45:43;96911.59;;;10.45;81.83
4012;BME280;2020;48.682;9.024;2022-10-31T00:48:09;96913.81;;;10.30;81.41
4012;BME280;2020;48.682;9.024;2022-10-31T00:50:34;96911.41;;;10.18;81.84
4012;BME280;2020;48.682;9.024;2022-10-31T00:53:00;96911.44;;;9.99;82.99
4012;BME280;2020;48.682;9.024;2022-10-31T00:55:25;96908.56;;;10.02;85.09
4012;BME280;2020;48.682;9.024;2022-10-31T00:57:50;96908.19;;;9.97;85.09
4012;BME280;2020;48.682;9.024;2022-10-31T01:00:16;96904.63;;;9.98;85.56
4012;BME280;2020;48.682;9.024;2022-10-31T01:02:41;96905.28;;;10.00;84.18
4012;BME280;2020;48.682;9.024;2022-10-31T01:05:06;96906.53;;;9.95;83.61
4012;BME280;2020;48.682;9.024;2022-10-31T01:07:36;96908.44;;;9.93;82.61
4012;BME280;2020;48.682;9.024;2022-10-31T01:10:01;96912.03;;;9.83;82.73
4012;BME280;2020;48.682;9.024;2022-10-31T01:12:26;96909.25;;;9.84;81.97
4012;BME280;2020;48.682;9.024;2022-10-31T01:14:52;96902.81;;;9.88;83.67
4012;BME280;2020;48.682;9.024;2022-10-31T01:17:17;96914.19;;;9.97;82.87
4012;BME280;2020;48.682;9.024;2022-10-31T01:19:42;96902.97;;;9.97;81.22
4012;BME280;2020;48.682;9.024;2022-10-31T01:22:07;96905.16;;;9.91;82.32
4012;BME280;2020;48.682;9.024;2022-10-31T01:24:33;96899.69;;;9.94;82.14
4012;BME280;2020;48.682;9.024;2022-10-31T01:26:58;96898.44;;;9.99;81.85
4012;BME280;2020;48.682;9.024;2022-10-31T01:29:23;96907.06;;;9.99;81.35
4012;BME280;2020;48.682;9.024;2022-10-31T01:31:49;96902.44;;;9.83;81.88
4012;BME280;2020;48.682;9.024;2022-10-31T01:34:16;96896.00;;;9.87;82.49
4012;BME280;2020;48.682;9.024;2022-10-31T01:36:42;96899.16;;;9.81;83.62
4012;BME280;2020;48.682;9.024;2022-10-31T01:39:11;96893.66;;;9.84;82.89
4012;BME280;2020;48.682;9.024;2022-10-31T01:41:39;96892.03;;;9.83;80.93
4012;BME280;2020;48.682;9.024;2022-10-31T01:46:46;96889.00;;;9.98;81.29
4012;BME280;2020;48.682;9.024;2022-10-31T01:49:17;96887.38;;;9.87;82.18
4012;BME280;2020;48.682;9.024;2022-10-31T01:51:49;96888.19;;;9.97;82.29
4012;BME280;2020;48.682;9.024;2022-10-31T01:54:19;96894.53;;;9.65;82.65
4012;BME280;2020;48.682;9.024;2022-10-31T01:56:48;96889.06;;;9.58;82.83
4012;BME280;2020;48.682;9.024;2022-10-31T01:59:17;96889.88;;;9.49;84.89
4012;BME280;2020;48.682;9.024;2022-10-31T02:01:45;96882.78;;;9.51;84.45
4012;BME280;2020;48.682;9.024;2022-10-31T02:04:11;96885.50;;;9.59;84.47
4012;BME280;2020;48.682;9.024;2022-10-31T02:06:47;96886.06;;;9.53;84.06
4012;BME280;2020;48.682;9.024;2022-10-31T02:09:14;96886.75;;;9.55;82.94
4012;BME280;2020;48.682;9.024;2022-10-31T02:11:40;96885.25;;;9.53;81.29
4012;BME280;2020;48.682;9.024;2022-10-31T02:14:06;96888.25;;;9.48;82.28
4012;BME280;2020;48.682;9.024;2022-10-31T02:16:31;96880.31;;;9.59;84.16
4012;BME280;2020;48.682;9.024;2022-10-31T02:18:57;96885.75;;;9.76;83.37
4012;BME280;2020;48.682;9.024;2022-10-31T02:30:02;96888.56;;;9.35;83.94
4012;BME280;2020;48.682;9.024;2022-10-31T02:32:45;96888.00;;;9.31;84.29
4012;BME280;2020;48.682;9.024;2022-10-31T02:36:35;96879.78;;;9.26;85.24
4012;BME280;2020;48.682;9.024;2022-10-31T02:39:12;96886.06;;;9.14;83.22
4012;BME280;2020;48.682;9.024;2022-10-31T02:41:47;96880.59;;;9.17;84.06
4012;BME280;2020;48.682;9.024;2022-10-31T02:44:30;96882.66;;;9.23;82.83
4012;BME280;2020;48.682;9.024;2022-10-31T02:47:18;96879.78;;;9.26;82.50
4012;BME280;2020;48.682;9.024;2022-10-31T02:49:53;96885.81;;;9.36;82.73
4012;BME280;2020;48.682;9.024;2022-10-31T02:52:28;96882.78;;;9.31;82.95
4012;BME280;2020;48.682;9.024;2022-10-31T02:54:54;96885.25;;;9.13;83.73
4012;BME280;2020;48.682;9.024;2022-10-31T02:57:29;96888.25;;;9.09;86.06
4012;BME280;2020;48.682;9.024;2022-10-31T03:00:14;96896.16;;;9.07;86.05
4012;BME280;2020;48.682;9.024;2022-10-31T03:05:11;96878.00;;;8.97;86.61
4012;BME280;2020;48.682;9.024;2022-10-31T03:11:05;96871.00;;;8.98;85.20
4012;BME280;2020;48.682;9.024;2022-10-31T03:16:25;96878.69;;;8.99;85.00
4012;BME280;2020;48.682;9.024;2022-10-31T03:21:33;96883.59;;;8.83;83.93
4012;BME280;2020;48.682;9.024;2022-10-31T03:24:01;96877.84;;;8.89;83.61
4012;BME280;2020;48.682;9.024;2022-10-31T03:26:27;96875.66;;;8.74;83.33
4012;BME280;2020;48.682;9.024;2022-10-31T03:28:55;96884.97;;;8.87;83.52
4012;BME280;2020;48.682;9.024;2022-10-31T03:31:36;96882.22;;;8.78;83.45
4012;BME280;2020;48.682;9.024;2022-10-31T03:34:03;96879.44;;;8.60;83.57
4012;BME280;2020;48.682;9.024;2022-10-31T03:36:32;96883.00;;;8.69;82.93
4012;BME280;2020;48.682;9.024;2022-10-31T03:39:00;96880.53;;;8.68;82.68
4012;BME280;2020;48.682;9.024;2022-10-31T03:41:28;96879.38;;;8.51;85.34
4012;BME280;2020;48.682;9.024;2022-10-31T03:44:04;96866.56;;;8.59;84.48
4012;BME280;2020;48.682;9.024;2022-10-31T03:46:32;96871.75;;;8.59;85.14
4012;BME280;2020;48.682;9.024;2022-10-31T03:48:57;96877.63;;;8.61;85.21
4012;BME280;2020;48.682;9.024;2022-10-31T03:51:42;96874.53;;;8.67;84.39
4012;BME280;2020;48.682;9.024;2022-10-31T03:54:19;96868.94;;;8.62;83.51
4012;BME280;2020;48.682;9.024;2022-10-31T03:56:55;96875.75;;;8.63;82.51
4012;BME280;2020;48.682;9.024;2022-10-31T04:02:18;96880.00;;;8.64;82.71
4012;BME280;2020;48.682;9.024;2022-10-31T04:04:46;96869.25;;;8.47;82.97
4012;BME280;2020;48.682;9.024;2022-10-31T04:07:13;96865.88;;;8.57;82.91
4012;BME280;2020;48.682;9.024;2022-10-31T04:09:44;96861.88;;;8.43;83.52
4012;BME280;2020;48.682;9.024;2022-10-31T04:12:13;96868.06;;;8.52;83.94
4012;BME280;2020;48.682;9.024;2022-10-31T04:14:42;96863.50;;;8.44;83.33
4012;BME280;2020;48.682;9.024;2022-10-31T04:17:13;96857.50;;;8.43;84.34
4012;BME280;2020;48.682;9.024;2022-10-31T04:19:40;96859.19;;;8.54;83.65
4012;BME280;2020;48.682;9.024;2022-10-31T04:22:05;96864.00;;;8.28;83.20
4012;BME280;2020;48.682;9.024;2022-10-31T04:24:30;96854.97;;;8.22;82.37
4012;BME280;2020;48.682;9.024;2022-10-31T04:26:56;96862.06;;;8.20;83.84
4012;BME280;2020;48.682;9.024;2022-10-31T04:29:21;96854.72;;;8.25;84.19
4012;BME280;2020;48.682;9.024;2022-10-31T04:31:46;96849.81;;;8.22;84.42
4012;BME280;2020;48.682;9.024;2022-10-31T04:34:12;96844.72;;;8.20;84.57
4012;BME280;2020;48.682;9.024;2022-10-31T04:36:37;96848.41;;;8.18;84.25
4012;BME280;2020;48.682;9.024;2022-10-31T04:39:02;96854.13;;;8.12;85.97
4012;BME280;2020;48.682;9.024;2022-10-31T04:41:28;96850.00;;;8.09;83.66
4012;BME280;2020;48.682;9.024;2022-10-31T04:43:53;96848.28;;;8.19;84.53
4012;BME280;2020;48.682;9.024;2022-10-31T04:46:18;96845.34;;;8.03;84.42
4012;BME280;2020;48.682;9.024;2022-10-31T04:48:43;96847.31;;;8.11;83.82
4012;BME280;2020;48.682;9.024;2022-10-31T04:51:09;96842.50;;;8.06;84.77
4012;BME280;2020;48.682;9.024;2022-10-31T04:53:34;96841.63;;;7.96;84.88
4012;BME280;2020;48.682;9.024;2022-10-31T04:55:59;96830.31;;;7.97;85.21
4012;BME280;2020;48.682;9.024;2022-10-31T04:58:26;96835.25;;;8.00;85.01
4012;BME280;2020;48.682;9.024;2022-10-31T05:00:52;96832.81;;;8.08;84.13
4012;BME280;2020;48.682;9.024;2022-10-31T05:03:18;96833.66;;;8.18;84.24
4012;BME280;2020;48.682;9.024;2022-10-31T05:05:43;96829.31;;;8.19;84.78
4012;BME280;2020;48.682;9.024;2022-10-31T05:08:09;96828.75;;;8.15;83.86
4012;BME280;2020;48.682;9.024;2022-10-31T05:10:34;96822.44;;;8.08;82.58
4012;BME280;2020;48.682;9.024;2022-10-31T05:13:01;96828.94;;;7.93;85.04
4012;BME280;2020;48.682;9.024;2022-10-31T05:15:28;96829.72;;;7.83;86.03
4012;BME280;2020;48.682;9.024;2022-10-31T05:17:54;96831.09;;;7.87;86.43
4012;BME280;2020;48.682;9.024;2022-10-31T05:20:21;96820.03;;;7.85;85.35
4012;BME280;2020;48.682;9.024;2022-10-31T05:22:49;96824.53;;;7.83;85.07
4012;BME280;2020;48.682;9.024;2022-10-31T05:25:15;96820.56;;;7.79;85.88
4012;BME280;2020;48.682;9.024;2022-10-31T05:27:42;96818.47;;;7.73;85.03
4012;BME280;2020;48.682;9.024;2022-10-31T05:30:09;96822.28;;;7.69;84.13
4012;BME280;2020;48.682;9.024;2022-10-31T05:32:53;96822.88;;;7.82;84.73
4012;BME280;2020;48.682;9.024;2022-10-31T05:35:23;96826.63;;;7.68;82.69
4012;BME280;2020;48.682;9.024;2022-10-31T05:37:49;96819.34;;;7.83;83.92
4012;BME280;2020;48.682;9.024;2022-10-31T05:40:16;96810.91;;;7.91;84.68
4012;BME280;2020;48.682;9.024;2022-10-31T05:42:42;96822.44;;;7.77;83.90
4012;BME280;2020;48.682;9.024;2022-10-31T05:45:14;96820.56;;;7.79;83.08
4012;BME280;2020;48.682;9.024;2022-10-31T05:47:39;96823.31;;;7.56;84.51
4012;BME280;2020;48.682;9.024;2022-10-31T05:50:06;96822.47;;;7.56;86.13
4012;BME280;2020;48.682;9.024;2022-10-31T05:52:31;96820.81;;;7.55;85.60
4012;BME280;2020;48.682;9.024;2022-10-31T05:54:57;96819.06;;;7.55;86.19
4012;BME280;2020;48.682;9.024;2022-10-31T05:57:22;96817.94;;;7.48;85.85
4012;BME280;2020;48.682;9.024;2022-10-31T05:59:47;96819.59;;;7.49;85.43
4012;BME280;2020;48.682;9.024;2022-10-31T06:02:13;96810.16;;;7.48;84.40
4012;BME280;2020;48.682;9.024;2022-10-31T06:04:38;96813.13;;;7.43;84.43
4012;BME280;2020;48.682;9.024;2022-10-31T06:07:03;96815.72;;;7.43;84.49
4012;BME280;2020;48.682;9.024;2022-10-31T06:09:28;96811.63;;;7.41;84.43
4012;BME280;2020;48.682;9.024;2022-10-31T06:11:54;96801.97;;;7.43;85.49
4012;BME280;2020;48.682;9.024;2022-10-31T06:14:19;96807.44;;;7.50;84.44
4012;BME280;2020;48.682;9.024;2022-10-31T06:16:44;96799.81;;;7.48;84.60
4012;BME280;2020;48.682;9.024;2022-10-31T06:19:10;96806.63;;;7.49;83.53
4012;BME280;2020;48.682;9.024;2022-10-31T06:21:35;96809.34;;;7.47;83.77
4012;BME280;2020;48.682;9.024;2022-10-31T06:24:00;96806.06;;;7.45;83.35
4012;BME280;2020;48.682;9.024;2022-10-31T06:26:25;96805.09;;;7.68;84.38
4012;BME280;2020;48.682;9.024;2022-10-31T06:28:51;96810.63;;;7.63;83.23
4012;BME280;2020;48.682;9.024;2022-10-31T06:31:16;96805.69;;;7.50;83.40
4012;BME280;2020;48.682;9.024;2022-10-31T06:33:41;96812.94;;;7.56;83.44
4012;BME280;2020;48.682;9.024;2022-10-31T06:36:08;96814.84;;;7.54;83.41
4012;BME280;2020;48.682;9.024;2022-10-31T06:38:33;96814.50;;;7.69;84.48
4012;BME280;2020;48.682;9.024;2022-10-31T06:41:02;96805.44;;;7.84;83.58
4012;BME280;2020;48.682;9.024;2022-10-31T06:43:28;96809.06;;;8.03;86.08
4012;BME280;2020;48.682;9.024;2022-10-31T06:45:54;96806.78;;;8.19;84.75
4012;BME280;2020;48.682;9.024;2022-10-31T06:48:19;96803.72;;;8.45;83.81
4012;BME280;2020;48.682;9.024;2022-10-31T06:50:44;96807.59;;;8.61;82.91
4012;BME280;2020;48.682;9.024;2022-10-31T06:53:10;96807.88;;;8.87;82.61
4012;BME280;2020;48.682;9.024;2022-10-31T06:55:35;96811.59;;;9.04;81.98
4012;BME280;2020;48.682;9.024;2022-10-31T06:58:01;96812.28;;;9.06;81.91
4012;BME280;2020;48.682;9.024;2022-10-31T07:00:28;96810.63;;;9.05;81.12
4012;BME280;2020;48.682;9.024;2022-10-31T07:05:18;96810.91;;;8.92;80.88
4012;BME280;2020;48.682;9.024;2022-10-31T07:07:44;96813.22;;;9.05;80.83
4012;BME280;2020;48.682;9.024;2022-10-31T07:10:09;96808.16;;;9.14;78.33
4012;BME280;2020;48.682;9.024;2022-10-31T07:12:34;96814.97;;;9.25;80.13
4012;BME280;2020;48.682;9.024;2022-10-31T07:14:59;96812.66;;;9.31;82.10
4012;BME280;2020;48.682;9.024;2022-10-31T07:17:25;96809.50;;;9.38;82.43
4012;BME280;2020;48.682;9.024;2022-10-31T07:19:50;96817.97;;;9.40;81.94
4012;BME280;2020;48.682;9.024;2022-10-31T07:22:15;96814.13;;;9.44;83.40
4012;BME280;2020;48.682;9.024;2022-10-31T07:24:40;96810.31;;;9.48;83.35
4012;BME280;2020;48.682;9.024;2022-10-31T07:27:06;96812.34;;;9.54;83.83
4012;BME280;2020;48.682;9.024;2022-10-31T07:29:31;96812.06;;;9.57;83.90
4012;BME280;2020;48.682;9.024;2022-10-31T07:31:56;96817.38;;;9.65;83.77
4012;BME280;2020;48.682;9.024;2022-10-31T07:34:21;96815.84;;;9.73;83.58
4012;BME280;2020;48.682;9.024;2022-10-31T07:36:47;96815.97;;;9.81;83.15
4012;BME280;2020;48.682;9.024;2022-10-31T07:39:12;96819.53;;;9.80;84.65
4012;BME280;2020;48.682;9.024;2022-10-31T07:41:37;96818.38;;;9.92;84.43
4012;BME280;2020;48.682;9.024;2022-10-31T07:44:03;96819.09;;;9.94;85.54
4012;BME280;2020;48.682;9.024;2022-10-31T07:46:28;96820.16;;;10.02;86.27
4012;BME280;2020;48.682;9.024;2022-10-31T07:48:53;96817.84;;;9.99;85.30
4012;BME280;2020;48.682;9.024;2022-10-31T07:51:19;96807.81;;;10.04;85.44
4012;BME280;2020;48.682;9.024;2022-10-31T07:53:44;96819.38;;;10.19;85.28
4012;BME280;2020;48.682;9.024;2022-10-31T07:56:09;96815.09;;;10.28;85.81
4012;BME280;2020;48.682;9.024;2022-10-31T07:58:35;96813.66;;;10.44;85.40
4012;BME280;2020;48.682;9.024;2022-10-31T08:01:00;96815.84;;;10.48;86.11
4012;BME280;2020;48.682;9.024;2022-10-31T08:03:25;96810.13;;;10.63;85.44
4012;BME280;2020;48.682;9.024;2022-10-31T08:05:51;96809.91;;;10.74;85.20
4012;BME280;2020;48.682;9.024;2022-10-31T08:08:16;96810.28;;;10.79;83.50
4012;BME280;2020;48.682;9.024;2022-10-31T08:10:41;96807.09;;;10.86;83.35
4012;BME280;2020;48.682;9.024;2022-10-31T08:13:11;96801.66;;;10.97;83.89
4012;BME280;2020;48.682;9.024;2022-10-31T08:15:37;96802.69;;;11.04;84.18
4012;BME280;2020;48.682;9.024;2022-10-31T08:18:05;96806.34;;;11.11;83.41
4012;BME280;2020;48.682;9.024;2022-10-31T08:20:31;96805.00;;;11.07;83.94
4012;BME280;2020;48.682;9.024;2022-10-31T08:22:58;96799.34;;;11.12;83.75
4012;BME280;2020;48.682;9.024;2022-10-31T08:25:24;96794.34;;;11.19;84.00
4012;BME280;2020;48.682;9.024;2022-10-31T08:27:51;96796.88;;;11.29;84.63
4012;BME280;2020;48.682;9.024;2022-10-31T08:30:21;96795.81;;;11.39;83.72
4012;BME280;2020;48.682;9.024;2022-10-31T08:32:57;96796.50;;;11.41;84.84
4012;BME280;2020;48.682;9.024;2022-10-31T08:35:22;96800.53;;;11.62;84.18
4012;BME280;2020;48.682;9.024;2022-10-31T08:37:52;96796.13;;;11.63;84.48
4012;BME280;2020;48.682;9.024;2022-10-31T08:40:18;96795.09;;;11.82;87.10
4012;BME280;2020;48.682;9.024;2022-10-31T08:42:43;96784.75;;;11.98;85.20
4012;BME280;2020;48.682;9.024;2022-10-31T08:45:09;96795.91;;;12.09;83.64
4012;BME280;2020;48.682;9.024;2022-10-31T08:47:34;96791.31;;;12.03;82.97
4012;BME280;2020;48.682;9.024;2022-10-31T08:49:59;96791.69;;;12.16;83.05
4012;BME280;2020;48.682;9.024;2022-10-31T08:52:25;96797.59;;;12.26;82.23
4012;BME280;2020;48.682;9.024;2022-10-31T08:54:51;96794.84;;;12.28;81.14
4012;BME280;2020;48.682;9.024;2022-10-31T08:57:16;96796.97;;;12.41;81.02
4012;BME280;2020;48.682;9.024;2022-10-31T08:59:41;96791.75;;;12.41;80.99
4012;BME280;2020;48.682;9.024;2022-10-31T09:02:07;96790.03;;;12.58;80.61
4012;BME280;2020;48.682;9.024;2022-10-31T09:04:32;96789.56;;;12.63;80.03
4012;BME280;2020;48.682;9.024;2022-10-31T09:06:57;96779.25;;;12.61;80.06
4012;BME280;2020;48.682;9.024;2022-10-31T09:09:23;96779.94;;;12.71;80.58
4012;BME280;2020;48.682;9.024;2022-10-31T09:11:48;96776.19;;;12.82;79.67
4012;BME280;2020;48.682;9.024;2022-10-31T09:14:13;96780.91;;;12.79;79.35
4012;BME280;2020;48.682;9.024;2022-10-31T09:16:38;96780.78;;;12.89;78.63
4012;BME280;2020;48.682;9.024;2022-10-31T09:19:04;96784.69;;;13.01;78.00
4012;BME280;2020;48.682;9.024;2022-10-31T09:21:29;96781.09;;;13.02;78.02
4012;BME280;2020;48.682;9.024;2022-10-31T09:23:54;96775.56;;;13.05;78.73
4012;BME280;2020;48.682;9.024;2022-10-31T09:26:19;96769.16;;;13.24;80.65
4012;BME280;2020;48.682;9.024;2022-10-31T09:28:45;96771.94;;;13.23;77.57
4012;BME280;2020;48.682;9.024;2022-10-31T09:31:11;96768.69;;;13.21;77.56
4012;BME280;2020;48.682;9.024;2022-10-31T09:33:37;96764.09;;;13.31;76.34
4012;BME280;2020;48.682;9.024;2022-10-31T09:36:02;96769.50;;;13.38;75.94
4012;BME280;2020;48.682;9.024;2022-10-31T09:38:27;96759.84;;;13.47;77.16
4012;BME280;2020;48.682;9.024;2022-10-31T09:47:02;96748.38;;;13.64;74.41
4012;BME280;2020;48.682;9.024;2022-10-31T09:52:29;96754.19;;;13.83;74.13
4012;BME280;2020;48.682;9.024;2022-10-31T09:55:17;96767.59;;;13.96;73.76
4012;BME280;2020;48.682;9.024;2022-10-31T09:57:44;96757.38;;;14.10;73.34
4012;BME280;2020;48.682;9.024;2022-10-31T10:00:18;96756.03;;;14.22;72.91
4012;BME280;2020;48.682;9.024;2022-10-31T10:02:59;96752.69;;;14.37;72.58
4012;BME280;2020;48.682;9.024;2022-10-31T10:05:34;96754.59;;;14.43;72.23
4012;BME280;2020;48.682;9.024;2022-10-31T10:08:23;96747.50;;;14.52;72.31
4012;BME280;2020;48.682;9.024;2022-10-31T10:10:55;96751.88;;;14.59;72.16
4012;BME280;2020;48.682;9.024;2022-10-31T10:25:43;96747.56;;;15.13;68.85
4012;BME280;2020;48.682;9.024;2022-10-31T10:28:20;96738.00;;;15.20;69.56
4012;BME280;2020;48.682;9.024;2022-10-31T10:31:00;96727.50;;;15.20;68.09
4012;BME280;2020;48.682;9.024;2022-10-31T10:33:35;96734.25;;;15.38;67.73
4012;BME280;2020;48.682;9.024;2022-10-31T10:36:04;96734.44;;;15.52;66.62
4012;BME280;2020;48.682;9.024;2022-10-31T10:40:58;96731.19;;;15.64;67.09
4012;BME280;2020;48.682;9.024;2022-10-31T10:43:33;96724.50;;;15.62;67.14
4012;BME280;2020;48.682;9.024;2022-10-31T10:51:57;96708.56;;;15.78;66.87
4012;BME280;2020;48.682;9.024;2022-10-31T10:57:11;96710.38;;;15.93;65.84
4012;BME280;2020;48.682;9.024;2022-10-31T10:59:38;96712.53;;;16.04;65.26
4012;BME280;2020;48.682;9.024;2022-10-31T11:02:16;96705.44;;;16.20;64.51
4012;BME280;2020;48.682;9.024;2022-10-31T11:04:42;96703.59;;;16.35;64.56
4012;BME280;2020;48.682;9.024;2022-10-31T11:07:09;96696.91;;;16.55;64.22
4012;BME280;2020;48.682;9.024;2022-10-31T11:09:36;96690.22;;;16.74;63.75
4012;BME280;2020;48.682;9.024;2022-10-31T11:12:10;96691.00;;;16.96;63.27
4012;BME280;2020;48.682;9.024;2022-10-31T11:15:03;96684.19;;;17.02;63.75
4012;BME280;2020;48.682;9.024;2022-10-31T11:17:36;96679.28;;;17.20;63.87
4012;BME280;2020;48.682;9.024;2022-10-31T11:22:41;96674.31;;;17.39;64.07
4012;BME280;2020;48.682;9.024;2022-10-31T11:27:45;96662.09;;;17.60;62.29
4012;BME280;2020;48.682;9.024;2022-10-31T11:30:12;96646.28;;;17.60;61.84
4012;BME280;2020;48.682;9.024;2022-10-31T11:32:43;96645.34;;;17.67;61.54
4012;BME280;2020;48.682;9.024;2022-10-31T11:35:13;96653.25;;;17.74;61.65
4012;BME280;2020;48.682;9.024;2022-10-31T11:37:44;96654.06;;;17.81;60.91
4012;BME280;2020;48.682;9.024;2022-10-31T11:40:18;96653.47;;;17.79;60.91
4012;BME280;2020;48.682;9.024;2022-10-31T11:42:45;96650.38;;;17.69;61.66
4012;BME280;2020;48.682;9.024;2022-10-31T11:45:16;96649.94;;;17.59;62.08
4012;BME280;2020;48.682;9.024;2022-10-31T11:47:46;96647.41;;;17.37;62.56
4012;BME280;2020;48.682;9.024;2022-10-31T11:50:20;96646.22;;;17.46;62.88
4012;BME280;2020;48.682;9.024;2022-10-31T11:52:46;96650.31;;;17.56;62.97
4012;BME280;2020;48.682;9.024;2022-10-31T11:57:48;96645.66;;;17.51;63.28
4012;BME280;2020;48.682;9.024;2022-10-31T12:00:25;96643.38;;;17.41;63.71
4012;BME280;2020;48.682;9.024;2022-10-31T12:05:51;96632.13;;;17.61;62.34
4012;BME280;2020;48.682;9.024;2022-10-31T12:08:17;96626.81;;;17.47;62.23
4012;BME280;2020;48.682;9.024;2022-10-31T12:13:29;96622.78;;;17.51;61.23
4012;BME280;2020;48.682;9.024;2022-10-31T12:16:22;96622.00;;;17.58;62.47
4012;BME280;2020;48.682;9.024;2022-10-31T12:19:03;96616.78;;;17.64;61.13
4012;BME280;2020;48.682;9.024;2022-10-31T12:24:13;96610.84;;;17.49;62.30
4012;BME280;2020;48.682;9.024;2022-10-31T12:26:49;96606.13;;;17.37;62.67
4012;BME280;2020;48.682;9.024;2022-10-31T12:29:29;96609.31;;;17.26;61.92
4012;BME280;2020;48.682;9.024;2022-10-31T12:49:31;96571.84;;;17.17;64.81
4012;BME280;2020;48.682;9.024;2022-10-31T12:57:31;96551.41;;;17.19;64.68
4012;BME280;2020;48.682;9.024;2022-10-31T13:02:42;96544.13;;;17.21;64.46
4012;BME280;2020;48.682;9.024;2022-10-31T13:05:33;96544.53;;;17.18;65.10
4012;BME280;2020;48.682;9.024;2022-10-31T13:08:12;96538.44;;;17.18;65.32
4012;BME280;2020;48.682;9.024;2022-10-31T13:10:45;96540.06;;;17.19;65.66
4012;BME280;2020;48.682;9.024;2022-10-31T13:13:26;96533.19;;;17.18;65.68
4012;BME280;2020;48.682;9.024;2022-10-31T13:15:56;96537.47;;;17.25;65.50
4012;BME280;2020;48.682;9.024;2022-10-31T13:18:36;96540.91;;;17.19;65.50
4012;BME280;2020;48.682;9.024;2022-10-31T13:21:11;96542.78;;;17.39;64.81
4012;BME280;2020;48.682;9.024;2022-10-31T13:23:39;96543.88;;;17.65;64.91
4012;BME280;2020;48.682;9.024;2022-10-31T13:26:49;96543.34;;;17.96;64.10
4012;BME280;2020;48.682;9.024;2022-10-31T13:29:20;96543.63;;;18.35;63.33
4012;BME280;2020;48.682;9.024;2022-10-31T13:31:46;96537.09;;;18.78;61.53
4012;BME280;2020;48.682;9.024;2022-10-31T13:36:52;96511.53;;;18.79;61.17
4012;BME280;2020;48.682;9.024;2022-10-31T13:42:04;96501.03;;;18.52;62.88
4012;BME280;2020;48.682;9.024;2022-10-31T13:44:35;96507.31;;;18.51;62.64
4012;BME280;2020;48.682;9.024;2022-10-31T13:47:20;96509.53;;;18.67;62.21
4012;BME280;2020;48.682;9.024;2022-10-31T13:49:46;96507.44;;;19.03;61.54
4012;BME280;2020;48.682;9.024;2022-10-31T13:52:15;96508.28;;;18.97;61.42
4012;BME280;2020;48.682;9.024;2022-10-31T13:54:43;96501.19;;;18.70;62.34
4012;BME280;2020;48.682;9.024;2022-10-31T13:57:21;96496.75;;;18.64;62.59
4012;BME280;2020;48.682;9.024;2022-10-31T13:59:56;96498.41;;;18.52;63.50
4012;BME280;2020;48.682;9.024;2022-10-31T14:02:32;96495.38;;;18.41;63.79
4012;BME280;2020;48.682;9.024;2022-10-31T14:05:01;96501.81;;;18.73;62.96
4012;BME280;2020;48.682;9.024;2022-10-31T14:07:28;96490.06;;;18.75;62.24
4012;BME280;2020;48.682;9.024;2022-10-31T14:09:58;96491.06;;;18.74;62.51
4012;BME280;2020;48.682;9.024;2022-10-31T14:14:58;96480.34;;;18.62;63.75
4012;BME280;2020;48.682;9.024;2022-10-31T14:17:44;96475.91;;;18.63;62.64
4012;BME280;2020;48.682;9.024;2022-10-31T14:22:37;96485.88;;;19.13;61.79
4012;BME280;2020;48.682;9.024;2022-10-31T14:25:34;96481.78;;;19.31;59.96
4012;BME280;2020;48.682;9.024;2022-10-31T14:30:53;96481.50;;;18.80;61.64
4012;BME280;2020;48.682;9.024;2022-10-31T14:33:19;96480.25;;;18.89;61.52
4012;BME280;2020;48.682;9.024;2022-10-31T14:38:44;96471.91;;;19.06;60.78
4012;BME280;2020;48.682;9.024;2022-10-31T14:41:20;96474.56;;;19.06;60.55
4012;BME280;2020;48.682;9.024;2022-10-31T14:47:10;96473.13;;;19.10;60.59
4012;BME280;2020;48.682;9.024;2022-10-31T14:52:35;96467.50;;;18.86;61.17
4012;BME280;2020;48.682;9.024;2022-10-31T14:55:05;96466.16;;;18.63;61.81
4012;BME280;2020;48.682;9.024;2022-10-31T14:57:34;96473.47;;;18.41;63.04
4012;BME280;2020;48.682;9.024;2022-10-31T15:00:05;96472.28;;;18.30;63.63
4012;BME280;2020;48.682;9.024;2022-10-31T15:02:42;96478.78;;;18.21;64.83
4012;BME280;2020;48.682;9.024;2022-10-31T15:05:12;96474.94;;;18.03;66.03
4012;BME280;2020;48.682;9.024;2022-10-31T15:07:49;96469.84;;;17.95;66.19
4012;BME280;2020;48.682;9.024;2022-10-31T15:10:24;96469.41;;;17.84;66.91
4012;BME280;2020;48.682;9.024;2022-10-31T15:12:50;96466.56;;;17.73;67.03
4012;BME280;2020;48.682;9.024;2022-10-31T15:15:24;96465.34;;;17.62;67.16
4012;BME280;2020;48.682;9.024;2022-10-31T15:17:56;96464.31;;;17.49;67.79
4012;BME280;2020;48.682;9.024;2022-10-31T15:20:24;96460.22;;;17.40;67.95
4012;BME280;2020;48.682;9.024;2022-10-31T15:22:51;96453.19;;;17.61;67.71
4012;BME280;2020;48.682;9.024;2022-10-31T15:25:22;96446.38;;;18.14;66.08
4012;BME280;2020;48.682;9.024;2022-10-31T15:27:49;96447.19;;;18.01;65.85
4012;BME280;2020;48.682;9.024;2022-10-31T15:32:44;96452.78;;;17.50;68.60
4012;BME280;2020;48.682;9.024;2022-10-31T15:35:10;96445.28;;;17.47;68.80
4012;BME280;2020;48.682;9.024;2022-10-31T15:37:35;96444.22;;;17.21;70.11
4012;BME280;2020;48.682;9.024;2022-10-31T15:40:11;96450.97;;;16.95;71.26
4012;BME280;2020;48.682;9.024;2022-10-31T15:42:41;96442.31;;;16.60;73.56
4012;BME280;2020;48.682;9.024;2022-10-31T15:47:38;96451.63;;;16.62;74.08